EVLA/LPX METAR and TAF weather

Enter ICAO airport designator
Station Type Date Time Source
EVLA METAR 2021/03/03 01:50 UTC NOAA

EVLA 030150Z AUTO 24003KT 200V260 9999 NCD M04/M04 Q1029


Station Type Date Time Source
EVLA Decoded METAR 2021/03/03 01:50 UTC NOAA

Liepaja International Airport, Latvia (EVLA) 56-31N 021-05E
Mar 02, 2021 - 08:50 PM EST / 2021.03.03 0150 UTC
Wind: from the WSW (240 degrees) at 3 MPH (3 KT) (direction variable):0
Visibility: greater than 7 mile(s):0
Temperature: 24 F (-4 C)
Dew Point: 24 F (-4 C)
Relative Humidity: 100%
Pressure (altimeter): 30.39 in. Hg (1029 hPa)
ob: EVLA 030150Z AUTO 24003KT 200V260 9999 NCD M04/M04 Q1029
cycle: 2

Station Type Date Time Source
EVLA TAF 2021/03/02 21:07 UTC NOAA

TAF EVLA 022003Z 0221/0321 VRB02KT CAVOK
TEMPO 0221/0222 3000 BR SCT004
TEMPO 0222/0309 0600 FG FZFG VV001
BECMG 0307/0309 24012KT
BECMG 0309/0311 OVC009
TEMPO 0311/0318 OVC004

Example: see airport list